createdAt,value
2023-03-20T00:00:34.057Z,16.10
2023-03-20T00:03:20.475Z,13.15
2023-03-20T00:06:06.206Z,14.68
2023-03-20T00:08:53.800Z,12.07
2023-03-20T00:11:53.439Z,11.93
2023-03-20T00:14:39.708Z,14.07
2023-03-20T00:17:25.326Z,14.85
2023-03-20T00:20:16.313Z,14.60
2023-03-20T00:23:01.946Z,10.93
2023-03-20T00:25:47.385Z,22.67
2023-03-20T00:28:42.899Z,20.15
2023-03-20T00:31:37.764Z,15.80
2023-03-20T00:34:25.961Z,14.07
2023-03-20T00:37:11.896Z,11.98
2023-03-20T00:39:57.482Z,20.25
2023-03-20T00:42:46.638Z,15.10
2023-03-20T00:45:35.217Z,17.60
2023-03-20T00:48:21.443Z,15.45
2023-03-20T00:51:07.058Z,18.30
2023-03-20T00:53:52.839Z,16.95
2023-03-20T01:00:46.692Z,14.70
2023-03-20T01:03:32.322Z,21.50
2023-03-20T01:06:18.980Z,15.27
2023-03-20T01:09:05.220Z,18.73
2023-03-20T01:11:51.100Z,13.80
2023-03-20T01:14:36.924Z,19.63
2023-03-20T01:17:24.193Z,23.05
2023-03-20T01:20:18.943Z,17.13
2023-03-20T01:23:04.388Z,15.88
2023-03-20T01:25:50.789Z,19.27
2023-03-20T01:28:36.433Z,21.15
2023-03-20T01:31:22.061Z,15.50
2023-03-20T01:34:12.613Z,17.73
2023-03-20T01:36:59.254Z,15.95
2023-03-20T01:39:44.843Z,22.38
2023-03-20T01:42:31.095Z,15.25
2023-03-20T01:45:20.260Z,12.88
2023-03-20T01:48:16.936Z,18.95
2023-03-20T01:51:02.228Z,17.33
2023-03-20T01:53:54.428Z,22.40
2023-03-20T01:56:44.507Z,17.35
2023-03-20T01:59:32.199Z,17.48
2023-03-20T02:02:23.454Z,18.10
2023-03-20T02:05:13.603Z,16.67
2023-03-20T02:08:17.681Z,17.52
2023-03-20T02:11:05.435Z,20.13
2023-03-20T02:13:54.335Z,18.42
2023-03-20T02:16:39.995Z,11.02
2023-03-20T02:19:35.507Z,15.07
2023-03-20T02:22:34.066Z,19.73
2023-03-20T02:26:01.175Z,18.85
2023-03-20T02:29:16.914Z,24.80
2023-03-20T02:32:15.738Z,18.02
2023-03-20T02:35:29.223Z,21.23
2023-03-20T02:38:23.411Z,22.90
2023-03-20T02:41:20.941Z,14.48
2023-03-20T02:44:12.089Z,17.58
2023-03-20T02:47:01.442Z,25.80
2023-03-20T02:50:07.733Z,15.80
2023-03-20T02:53:12.215Z,18.92
2023-03-20T02:56:12.597Z,11.43
2023-03-20T02:59:02.897Z,19.40
2023-03-20T03:01:54.867Z,17.73
2023-03-20T03:04:46.111Z,20.58
2023-03-20T03:07:35.403Z,16.70
2023-03-20T03:10:45.404Z,20.92
2023-03-20T03:13:33.695Z,21.63
2023-03-20T03:16:33.106Z,24.08
2023-03-20T03:19:26.394Z,17.80
2023-03-20T03:24:58.115Z,18.13
2023-03-20T03:27:47.818Z,27.73
2023-03-20T03:30:37.503Z,19.25
2023-03-20T03:34:17.780Z,13.98
2023-03-20T03:37:18.708Z,13.85
2023-03-20T03:40:19.537Z,16.45
2023-03-20T03:43:14.533Z,14.93
2023-03-20T03:47:04.853Z,14.63
2023-03-20T03:50:05.683Z,22.17
2023-03-20T03:52:52.634Z,17.35
2023-03-20T03:55:43.443Z,15.40
2023-03-20T03:58:43.035Z,12.40
2023-03-20T04:01:32.568Z,16.17
2023-03-20T04:04:20.643Z,21.60
2023-03-20T04:07:06.519Z,15.68
2023-03-20T04:09:52.035Z,17.88
2023-03-20T04:12:42.352Z,17.40
2023-03-20T04:15:28.495Z,22.33
2023-03-20T04:18:18.572Z,14.95
2023-03-20T04:21:04.528Z,13.18
2023-03-20T04:23:49.749Z,14.30
2023-03-20T04:26:35.243Z,16.63
2023-03-20T04:29:20.819Z,19.23
2023-03-20T04:32:07.173Z,17.45
2023-03-20T04:34:52.786Z,16.67
2023-03-20T04:37:38.250Z,14.50
2023-03-20T04:40:23.897Z,15.13
2023-03-20T04:43:10.823Z,13.75
2023-03-20T04:45:56.308Z,15.95
2023-03-20T04:48:41.915Z,17.58
2023-03-20T04:51:27.574Z,15.82
2023-03-20T04:54:13.284Z,16.25
2023-03-20T04:56:58.766Z,17.13
2023-03-20T04:59:44.031Z,18.75
2023-03-20T05:02:29.683Z,12.40
2023-03-20T05:05:15.505Z,21.73
2023-03-20T05:08:01.326Z,18.73
2023-03-20T05:10:46.878Z,17.55
2023-03-20T05:13:32.550Z,20.13
2023-03-20T05:16:18.375Z,24.00
2023-03-20T05:19:04.014Z,16.92
2023-03-20T05:21:49.424Z,19.20
2023-03-20T05:24:34.634Z,13.88
2023-03-20T05:27:20.273Z,17.23
2023-03-20T05:30:06.621Z,17.73
2023-03-20T05:32:53.030Z,30.05
2023-03-20T05:35:39.422Z,20.55
2023-03-20T05:38:26.838Z,22.33
2023-03-20T05:41:12.774Z,23.33
2023-03-20T05:43:58.474Z,22.83
2023-03-20T05:46:44.101Z,26.55
2023-03-20T05:49:29.608Z,21.60
2023-03-20T05:52:16.540Z,19.77
2023-03-20T05:55:02.012Z,33.20
2023-03-20T05:57:47.564Z,23.83
2023-03-20T06:00:33.142Z,24.65
2023-03-20T06:03:18.701Z,23.10
2023-03-20T06:06:04.959Z,22.48
2023-03-20T06:08:50.434Z,21.92
2023-03-20T06:11:37.573Z,25.75
2023-03-20T06:14:23.580Z,23.67
2023-03-20T06:17:09.263Z,28.02
2023-03-20T06:19:54.938Z,25.00
2023-03-20T06:22:41.368Z,23.75
2023-03-20T06:25:26.748Z,21.67
2023-03-20T06:28:12.517Z,25.25
2023-03-20T06:30:58.522Z,26.27
2023-03-20T06:33:45.381Z,26.73
2023-03-20T06:36:32.192Z,23.42
2023-03-20T06:39:17.835Z,21.38
2023-03-20T06:42:03.728Z,26.00
2023-03-20T06:44:49.316Z,29.20
2023-03-20T06:47:34.818Z,21.20
2023-03-20T06:50:20.828Z,25.30
2023-03-20T06:53:06.821Z,25.00
2023-03-20T06:57:56.514Z,24.92
2023-03-20T07:00:29.800Z,21.30
2023-03-20T07:03:15.817Z,33.45
2023-03-20T07:06:01.969Z,22.45
2023-03-20T07:08:47.773Z,25.70
2023-03-20T07:11:33.381Z,18.45
2023-03-20T07:14:18.674Z,19.58
2023-03-20T07:17:04.193Z,20.08
2023-03-20T07:19:50.379Z,23.48
2023-03-20T07:22:36.387Z,20.50
2023-03-20T07:25:35.448Z,21.55
2023-03-20T07:28:27.237Z,21.27
2023-03-20T07:31:22.377Z,25.33
2023-03-20T07:34:08.063Z,22.13
2023-03-20T07:36:53.595Z,19.50
2023-03-20T07:39:39.111Z,23.20
2023-03-20T07:42:24.824Z,17.95
2023-03-20T07:45:10.669Z,16.25
2023-03-20T07:47:56.401Z,19.45
2023-03-20T07:50:41.975Z,18.80
2023-03-20T07:53:27.511Z,15.00
2023-03-20T07:56:13.279Z,18.10
2023-03-20T07:58:58.904Z,16.92
2023-03-20T08:01:45.398Z,18.67
2023-03-20T08:04:31.234Z,14.25
2023-03-20T08:07:17.204Z,20.10
2023-03-20T08:10:04.173Z,21.48
2023-03-20T08:12:49.860Z,18.08
2023-03-20T08:15:35.728Z,19.95
2023-03-20T08:18:22.521Z,18.80
2023-03-20T08:21:08.891Z,17.83
2023-03-20T08:23:55.338Z,19.88
2023-03-20T08:26:41.050Z,23.38
2023-03-20T08:29:26.373Z,24.08
2023-03-20T08:32:12.238Z,17.63
2023-03-20T08:34:57.882Z,20.13
2023-03-20T08:37:43.308Z,19.45
2023-03-20T08:40:29.685Z,20.15
2023-03-20T08:43:15.855Z,21.92
2023-03-20T08:46:00.981Z,14.88
2023-03-20T08:48:46.592Z,20.38
2023-03-20T08:51:32.608Z,17.13
2023-03-20T08:54:18.588Z,13.98
2023-03-20T08:57:04.393Z,13.40
2023-03-20T08:59:49.795Z,14.25
2023-03-20T09:02:36.190Z,11.57
2023-03-20T09:05:22.256Z,7.35
2023-03-20T09:08:07.880Z,10.32
2023-03-20T09:10:53.661Z,8.88
2023-03-20T09:13:39.059Z,8.65
2023-03-20T09:16:24.421Z,8.75
2023-03-20T09:19:09.963Z,7.45
2023-03-20T09:21:55.879Z,9.10
2023-03-20T09:24:41.853Z,10.02
2023-03-20T09:27:27.266Z,6.20
2023-03-20T09:30:13.586Z,5.82
2023-03-20T09:32:59.003Z,7.00
2023-03-20T09:35:44.590Z,6.97
2023-03-20T09:38:30.351Z,5.78
2023-03-20T09:41:26.753Z,6.43
2023-03-20T09:44:46.263Z,10.65
2023-03-20T09:47:57.452Z,6.75
2023-03-20T09:51:06.062Z,5.80
2023-03-20T09:53:59.286Z,8.80
2023-03-20T09:56:46.731Z,6.97
2023-03-20T09:59:36.277Z,9.10
2023-03-20T10:02:54.414Z,6.15
2023-03-20T10:05:44.824Z,9.10
2023-03-20T10:08:36.961Z,5.13
2023-03-20T10:11:41.369Z,5.50
2023-03-20T10:14:47.198Z,6.57
2023-03-20T10:17:38.332Z,8.43
2023-03-20T10:20:37.156Z,6.20
2023-03-20T10:23:29.263Z,3.90
2023-03-20T10:26:20.292Z,4.90
2023-03-20T10:29:15.386Z,5.50
2023-03-20T10:32:29.630Z,6.57
2023-03-20T10:35:18.192Z,4.50
2023-03-20T10:38:14.040Z,7.30
2023-03-20T10:40:59.766Z,5.75
2023-03-20T10:43:48.659Z,4.40
2023-03-20T10:46:42.541Z,4.18
2023-03-20T10:49:39.994Z,6.15
2023-03-20T10:52:29.840Z,6.03
2023-03-20T10:55:22.292Z,7.32
2023-03-20T10:58:17.112Z,3.93
2023-03-20T11:01:03.473Z,4.35
2023-03-20T11:03:48.918Z,3.28
2023-03-20T11:06:46.470Z,5.45
2023-03-20T11:09:32.706Z,3.83
2023-03-20T11:12:20.396Z,4.50
2023-03-20T11:15:23.571Z,4.32
2023-03-20T11:18:15.327Z,4.23
2023-03-20T11:21:02.597Z,2.35
2023-03-20T11:23:48.548Z,3.63
2023-03-20T11:26:40.156Z,2.42
2023-03-20T11:29:35.333Z,2.80
2023-03-20T11:32:41.702Z,5.07
2023-03-20T11:35:36.206Z,4.00
2023-03-20T11:38:22.334Z,3.85
2023-03-20T11:41:18.131Z,5.47
2023-03-20T11:44:03.993Z,2.22
2023-03-20T11:47:06.248Z,3.58
2023-03-20T11:50:00.001Z,3.78
2023-03-20T11:52:45.550Z,3.00
2023-03-20T11:55:33.922Z,4.05
2023-03-20T11:58:21.645Z,6.95
2023-03-20T12:01:12.731Z,5.72
2023-03-20T12:03:58.494Z,6.05
2023-03-20T12:06:52.731Z,3.72
2023-03-20T12:09:38.531Z,6.75
2023-03-20T12:12:37.555Z,6.70
2023-03-20T12:15:33.215Z,9.02
2023-03-20T12:18:39.078Z,7.82
2023-03-20T12:21:51.168Z,3.95
2023-03-20T12:24:49.664Z,7.43
2023-03-20T12:27:46.083Z,6.38
2023-03-20T12:30:51.857Z,6.57
2023-03-20T12:34:01.425Z,5.28
2023-03-20T12:36:49.225Z,9.52
2023-03-20T12:39:41.537Z,9.02
2023-03-20T12:42:39.036Z,9.38
2023-03-20T12:45:53.528Z,10.18
2023-03-20T12:48:42.264Z,9.65
2023-03-20T12:51:28.200Z,10.23
2023-03-20T12:54:28.070Z,12.15
2023-03-20T12:57:23.599Z,11.80
2023-03-20T13:00:29.049Z,13.20
2023-03-20T13:03:39.675Z,11.80
2023-03-20T13:06:43.485Z,11.60
2023-03-20T13:10:04.397Z,9.70
2023-03-20T13:13:05.654Z,10.68
2023-03-20T13:16:08.907Z,13.65
2023-03-20T13:19:06.596Z,7.78
2023-03-20T13:22:02.182Z,13.60
2023-03-20T13:25:03.801Z,11.82
2023-03-20T13:27:57.366Z,12.73
2023-03-20T13:30:52.602Z,11.18
2023-03-20T13:33:45.325Z,9.98
2023-03-20T13:36:49.813Z,10.98
2023-03-20T13:39:43.818Z,6.00
2023-03-20T13:42:35.908Z,8.30
2023-03-20T13:45:33.598Z,7.97
2023-03-20T13:48:36.377Z,9.18
2023-03-20T13:51:46.384Z,8.70
2023-03-20T13:54:58.977Z,5.10
2023-03-20T13:57:49.091Z,7.68
2023-03-20T14:00:50.002Z,7.68
2023-03-20T14:03:38.960Z,5.80
2023-03-20T14:06:27.936Z,4.53
2023-03-20T14:09:26.037Z,4.28
2023-03-20T14:12:13.481Z,4.82
2023-03-20T14:15:00.869Z,4.15
2023-03-20T14:17:48.946Z,4.03
2023-03-20T14:20:50.832Z,2.72
2023-03-20T14:23:39.291Z,4.68
2023-03-20T14:26:29.105Z,2.80
2023-03-20T14:29:14.473Z,3.25
2023-03-20T14:32:29.441Z,2.22
2023-03-20T14:35:14.970Z,3.05
2023-03-20T14:38:35.613Z,2.17
2023-03-20T14:41:52.716Z,1.80
2023-03-20T14:45:06.887Z,4.20
2023-03-20T14:48:04.126Z,2.22
2023-03-20T14:51:23.431Z,3.33
2023-03-20T14:54:27.616Z,3.33
2023-03-20T14:57:48.794Z,2.38
2023-03-20T15:00:46.703Z,2.72
2023-03-20T15:03:33.473Z,2.08
2023-03-20T15:06:22.873Z,2.05
2023-03-20T15:09:11.658Z,3.08
2023-03-20T15:12:04.522Z,1.33
2023-03-20T15:14:57.488Z,3.30
2023-03-20T15:17:47.831Z,2.77
2023-03-20T15:20:36.719Z,3.13
2023-03-20T15:23:25.993Z,2.45
2023-03-20T15:26:14.486Z,1.63
2023-03-20T15:29:11.165Z,3.45
2023-03-20T15:32:12.798Z,3.75
2023-03-20T15:34:59.828Z,5.18
2023-03-20T15:37:48.177Z,6.28
2023-03-20T15:40:49.958Z,4.38
2023-03-20T15:43:38.178Z,2.10
2023-03-20T15:46:27.529Z,3.30
2023-03-20T15:49:18.373Z,5.22
2023-03-20T15:52:21.680Z,3.30
2023-03-20T15:55:14.744Z,2.00
2023-03-20T15:58:02.114Z,3.30
2023-03-20T16:00:49.266Z,3.17
2023-03-20T16:03:38.524Z,1.98
2023-03-20T16:06:25.592Z,2.42
2023-03-20T16:09:16.239Z,5.90
2023-03-20T16:12:03.147Z,4.53
2023-03-20T16:14:50.728Z,4.65
2023-03-20T16:17:36.448Z,5.07
2023-03-20T16:20:23.724Z,2.75
2023-03-20T16:23:10.059Z,4.20
2023-03-20T16:25:59.212Z,3.67
2023-03-20T16:28:51.124Z,3.15
2023-03-20T16:31:42.606Z,4.05
2023-03-20T16:34:35.291Z,3.13
2023-03-20T16:37:31.333Z,3.53
2023-03-20T16:40:19.674Z,3.70
2023-03-20T16:43:19.347Z,4.00
2023-03-20T16:46:07.114Z,2.22
2023-03-20T16:48:56.805Z,3.33
2023-03-20T16:51:44.112Z,2.92
2023-03-20T16:54:34.389Z,3.88
2023-03-20T16:57:20.965Z,2.58
2023-03-20T17:00:19.768Z,1.95
2023-03-20T17:03:18.926Z,3.65
2023-03-20T17:06:26.466Z,3.03
2023-03-20T17:09:41.088Z,4.97
2023-03-20T17:12:32.632Z,3.72
2023-03-20T17:15:21.666Z,4.80
2023-03-20T17:18:12.753Z,2.85
2023-03-20T17:20:58.537Z,2.92
2023-03-20T17:23:44.282Z,4.82
2023-03-20T17:26:29.876Z,5.07
2023-03-20T17:29:15.550Z,3.30
2023-03-20T17:32:01.194Z,3.13
2023-03-20T17:34:46.978Z,2.83
2023-03-20T17:37:32.537Z,1.58
2023-03-20T17:40:21.879Z,1.73
2023-03-20T17:43:14.131Z,4.82
2023-03-20T17:45:59.473Z,2.00
2023-03-20T17:48:45.736Z,3.53
2023-03-20T17:51:31.151Z,2.90
2023-03-20T17:54:16.888Z,3.40
2023-03-20T17:57:02.347Z,4.30
2023-03-20T17:59:50.102Z,2.53
2023-03-20T18:02:35.744Z,3.78
2023-03-20T18:05:22.061Z,1.48
2023-03-20T18:08:19.917Z,2.17
2023-03-20T18:11:05.881Z,3.92
2023-03-20T18:13:51.715Z,2.70
2023-03-20T18:16:37.112Z,2.83
2023-03-20T18:19:28.303Z,1.92
2023-03-20T18:22:13.953Z,1.20
2023-03-20T18:24:59.839Z,3.03
2023-03-20T18:27:45.635Z,2.78
2023-03-20T18:30:38.268Z,2.50
2023-03-20T18:33:27.619Z,5.03
2023-03-20T18:36:15.701Z,2.55
2023-03-20T18:39:01.282Z,2.83
2023-03-20T18:41:47.550Z,5.47
2023-03-20T18:44:32.896Z,5.25
2023-03-20T18:47:18.545Z,8.98
2023-03-20T18:50:04.604Z,9.38
2023-03-20T18:52:51.714Z,11.05
2023-03-20T18:55:38.385Z,14.25
2023-03-20T18:58:26.481Z,13.30
2023-03-20T19:01:13.018Z,15.15
2023-03-20T19:03:59.347Z,14.90
2023-03-20T19:06:45.438Z,17.05
2023-03-20T19:09:31.126Z,17.35
2023-03-20T19:12:17.182Z,14.73
2023-03-20T19:15:03.117Z,21.30
2023-03-20T19:17:49.084Z,19.27
2023-03-20T19:20:39.728Z,19.23
2023-03-20T19:23:29.048Z,15.30
2023-03-20T19:26:17.670Z,18.77
2023-03-20T19:29:10.125Z,17.30
2023-03-20T19:31:55.492Z,17.90
2023-03-20T19:35:31.169Z,18.58
2023-03-20T19:37:45.872Z,14.68
2023-03-20T19:40:42.942Z,14.98
2023-03-20T19:43:29.446Z,16.30
2023-03-20T19:46:28.495Z,16.42
2023-03-20T19:49:30.472Z,20.85
2023-03-20T19:52:28.698Z,19.23
2023-03-20T19:55:14.338Z,16.33
2023-03-20T19:58:00.829Z,17.42
2023-03-20T20:00:59.049Z,22.13
2023-03-20T20:03:46.702Z,18.63
2023-03-20T20:06:33.381Z,14.45
2023-03-20T20:09:24.098Z,14.95
2023-03-20T20:12:09.854Z,15.55
2023-03-20T20:14:55.649Z,18.38
2023-03-20T20:17:41.022Z,15.98
2023-03-20T20:20:29.278Z,16.70
2023-03-20T20:23:18.360Z,16.42
2023-03-20T20:26:04.978Z,20.65
2023-03-20T20:28:50.993Z,15.40
2023-03-20T20:31:36.512Z,14.25
2023-03-20T20:38:27.164Z,14.48
2023-03-20T20:40:33.284Z,15.50
2023-03-20T20:43:43.872Z,15.88
2023-03-20T20:46:25.884Z,13.70
2023-03-20T20:49:19.108Z,19.27
2023-03-20T20:52:06.444Z,16.42
2023-03-20T20:54:51.996Z,15.68
2023-03-20T20:57:38.116Z,17.42
2023-03-20T21:00:41.334Z,15.25
2023-03-20T21:03:31.548Z,15.63
2023-03-20T21:06:17.355Z,17.35
2023-03-20T21:09:03.821Z,13.23
2023-03-20T21:11:49.300Z,13.93
2023-03-20T21:14:35.682Z,14.07
2023-03-20T21:17:21.663Z,14.30
2023-03-20T21:20:08.548Z,10.73
2023-03-20T21:22:54.900Z,14.50
2023-03-20T21:25:43.220Z,11.55
2023-03-20T21:28:30.144Z,14.07
2023-03-20T21:31:27.302Z,14.05
2023-03-20T21:34:14.337Z,13.27
2023-03-20T21:37:20.612Z,13.45
2023-03-20T21:40:07.014Z,14.95
2023-03-20T21:42:53.014Z,11.65
2023-03-20T21:58:56.437Z,16.92
2023-03-20T22:01:46.025Z,14.57
2023-03-20T22:07:53.754Z,16.02
2023-03-20T22:11:26.154Z,15.68
2023-03-20T22:14:25.236Z,16.75
2023-03-20T22:17:40.894Z,15.65
2023-03-20T22:26:58.268Z,15.07
2023-03-20T22:33:03.552Z,16.50
2023-03-20T22:39:05.223Z,12.95
2023-03-20T22:42:13.884Z,19.08
2023-03-20T22:47:42.595Z,18.55
2023-03-20T22:50:27.815Z,21.83
2023-03-20T22:53:13.502Z,18.45
2023-03-20T22:56:00.108Z,15.52
2023-03-20T22:58:46.388Z,21.75
2023-03-20T23:01:32.311Z,18.35
2023-03-20T23:04:18.213Z,19.30
2023-03-20T23:07:03.681Z,18.60
2023-03-20T23:09:49.182Z,20.35
2023-03-20T23:12:36.328Z,17.73
2023-03-20T23:15:22.075Z,15.85
2023-03-20T23:18:09.789Z,20.63
2023-03-20T23:21:00.180Z,21.40
2023-03-20T23:23:45.816Z,16.83
2023-03-20T23:26:32.347Z,17.02
2023-03-20T23:29:18.209Z,20.23
2023-03-20T23:32:04.643Z,18.42
2023-03-20T23:40:18.477Z,16.60
2023-03-20T23:48:47.507Z,16.55
2023-03-20T23:52:27.629Z,18.25
2023-03-20T23:58:30.909Z,20.92
